Montague, CA

3:15 AM PDT on August 31, 2014 (GMT -0700)
Siskiyou County | Change Station
CLOSE
Current Station
Airport
Location: Montague,
Elevation: 2648 ft
Nearby Weather Stations

Elev 2648 ft 41.78 °N, 122.47 °W | Updated 22 minutes ago

Clear
Clear
58 °F
Feels Like 58 °F
N
9
Wind Variable Wind from North

Today
High -- | Low -- °F
--% Chance of Precip.
Yesterday
High -- | Low -- °F
Precip. -- in
6:34 AM 7:44 PM
Waxing Crescent, 29% visible
Pressure 30.01 in
Visibility 10.0 miles
Clouds Clear
Dew Point 48 °F
Humidity 70%
Rainfall 0.00 in
Snow Depth Not available.
UV 0 out of 12
Pollen 6.20 out of 12
Air Quality Not available.
Flu Activity Not available.
METAR KSIY 310953Z AUTO 35008KT 10SM CLR 14/09 A3003 RMK AO2 SLP160 T01440089

More Conditions Fewer Conditions

Pressure 30.01 in
Visibility 10.0 miles
Clouds Clear
Dew Point 48 °F
Humidity 70%
Rainfall 0.00 in
Snow Depth Not available.
UV 0 out of 12
Pollen 6.20 out of 12
Air Quality Not available.
Flu Activity Not available.
METAR KSIY 310953Z AUTO 35008KT 10SM CLR 14/09 A3003 RMK AO2 SLP160 T01440089

More Conditions Fewer Conditions

10-Day Weather Forecast

Almanac

Astronomy

Aug. 31, 2014 Rise Set
Actual Time 6:34 AM PDT 7:44 PM PDT
Civil Twilight 6:06 AM PDT 8:13 PM PDT
Nautical Twilight 5:31 AM PDT 8:47 PM PDT
Astronomical Twilight 4:55 AM PDT 9:23 PM PDT
Moon 12:32 PM PDT 10:58 PM PDT
Length of Visible Light 14h 07m
Length of Day
13h 09m
Tomorrow will be 2m 41s shorter.
Waxing Crescent, 29% of the Moon is Illuminated
Today
Waxing Crescent
Sep 2
First Quarter
Sep 8
Full
Sep 15
Last Quarter
Sep 24
New

Today's Extremes

State Highs State Lows

Community

WunderPhotos

Upload Photos

1,748,834 photos uploaded!

Nearby

Snow Depth

Station Depth Elevation
Adin Mountain 0 in 6200 ft
Cedar Pass 1 in 7100 ft
CSS Lab 3 in 6900 ft
Squaw Valley 0 in 8200 ft
Tahoe City Cross 0 in 6750 ft

Earthquake Activity

City Distance Mag. Time & Date
No recent earthquake activity has been reported nearby.
Minimum magnitude displayed is 2.5.

Coastal Water Temperatures

Place Temperature
No Stations Reporting

Nearby Weather Stations